createdAt,value
2022-09-15T00:01:05.363Z,19.65
2022-09-15T00:03:33.090Z,20.38
2022-09-15T00:06:00.414Z,19.15
2022-09-15T00:08:27.789Z,19.73
2022-09-15T00:10:58.680Z,19.58
2022-09-15T00:13:26.436Z,18.92
2022-09-15T00:15:54.935Z,19.67
2022-09-15T00:18:22.437Z,18.90
2022-09-15T00:20:50.061Z,19.30
2022-09-15T00:23:18.033Z,16.42
2022-09-15T00:25:48.927Z,17.15
2022-09-15T00:28:19.582Z,17.40
2022-09-15T00:30:50.605Z,18.08
2022-09-15T00:33:20.104Z,18.33
2022-09-15T00:35:50.194Z,17.90
2022-09-15T00:38:18.946Z,17.83
2022-09-15T00:40:51.346Z,17.77
2022-09-15T00:43:22.266Z,16.95
2022-09-15T00:45:50.884Z,16.48
2022-09-15T00:48:22.288Z,17.98
2022-09-15T00:50:54.384Z,17.52
2022-09-15T00:53:23.779Z,16.45
2022-09-15T00:55:52.055Z,15.55
2022-09-15T00:58:27.501Z,14.43
2022-09-15T01:00:59.240Z,16.55
2022-09-15T01:03:30.645Z,15.35
2022-09-15T01:06:23.527Z,15.80
2022-09-15T01:09:08.974Z,14.98
2022-09-15T01:11:36.805Z,15.63
2022-09-15T01:14:04.722Z,15.90
2022-09-15T01:16:47.275Z,14.98
2022-09-15T01:19:38.897Z,14.90
2022-09-15T01:22:32.773Z,14.35
2022-09-15T01:25:10.268Z,13.05
2022-09-15T01:27:56.232Z,13.77
2022-09-15T01:30:25.038Z,13.15
2022-09-15T01:33:05.500Z,13.50
2022-09-15T01:35:42.565Z,13.40
2022-09-15T01:38:28.813Z,14.25
2022-09-15T01:41:18.730Z,14.73
2022-09-15T01:44:03.958Z,13.70
2022-09-15T01:46:36.260Z,14.02
2022-09-15T01:49:06.958Z,15.20
2022-09-15T01:51:36.468Z,14.40
2022-09-15T01:54:06.891Z,12.20
2022-09-15T01:56:37.043Z,6.38
2022-09-15T01:59:04.705Z,5.28
2022-09-15T02:01:40.941Z,4.75
2022-09-15T02:04:28.066Z,5.25
2022-09-15T02:07:11.711Z,3.30
2022-09-15T02:09:47.329Z,2.72
2022-09-15T02:12:26.107Z,2.25
2022-09-15T02:15:03.613Z,1.80
2022-09-15T02:17:38.335Z,2.15
2022-09-15T02:20:20.751Z,2.00
2022-09-15T02:22:54.060Z,1.83
2022-09-15T02:25:29.153Z,2.00
2022-09-15T02:30:47.424Z,1.80
2022-09-15T02:33:19.995Z,1.50
2022-09-15T02:35:48.037Z,1.77
2022-09-15T02:38:15.854Z,1.38
2022-09-15T02:40:44.922Z,1.60
2022-09-15T02:43:16.163Z,1.38
2022-09-15T02:45:44.132Z,1.50
2022-09-15T02:48:11.808Z,1.33
2022-09-15T02:50:39.619Z,1.30
2022-09-15T02:53:07.852Z,1.55
2022-09-15T02:55:35.506Z,1.45
2022-09-15T02:58:02.909Z,1.70
2022-09-15T03:00:31.316Z,1.50
2022-09-15T03:02:58.878Z,1.80
2022-09-15T03:05:28.749Z,2.10
2022-09-15T03:07:57.059Z,2.13
2022-09-15T03:10:25.131Z,1.73
2022-09-15T03:12:54.526Z,1.77
2022-09-15T03:15:24.053Z,2.00
2022-09-15T03:17:52.261Z,1.80
2022-09-15T03:20:23.626Z,1.75
2022-09-15T03:22:51.259Z,1.90
2022-09-15T03:25:19.835Z,1.65
2022-09-15T03:27:47.702Z,1.75
2022-09-15T03:30:15.276Z,1.80
2022-09-15T03:32:42.723Z,1.85
2022-09-15T03:35:10.200Z,1.95
2022-09-15T03:37:37.720Z,1.65
2022-09-15T03:40:06.064Z,1.80
2022-09-15T03:42:33.555Z,1.75
2022-09-15T03:45:00.955Z,1.90
2022-09-15T03:47:28.274Z,1.75
2022-09-15T03:49:55.642Z,2.60
2022-09-15T03:52:22.984Z,1.40
2022-09-15T03:54:50.592Z,1.38
2022-09-15T03:57:17.989Z,1.58
2022-09-15T03:59:45.465Z,1.10
2022-09-15T04:02:13.041Z,1.10
2022-09-15T04:04:41.254Z,1.08
2022-09-15T04:07:09.233Z,1.20
2022-09-15T04:09:37.560Z,1.40
2022-09-15T04:12:06.392Z,1.23
2022-09-15T04:14:33.754Z,1.30
2022-09-15T04:17:01.298Z,1.10
2022-09-15T04:19:29.368Z,1.10
2022-09-15T04:21:56.734Z,1.00
2022-09-15T04:24:24.055Z,1.08
2022-09-15T04:26:51.480Z,1.10
2022-09-15T04:29:19.800Z,1.00
2022-09-15T04:31:47.361Z,0.90
2022-09-15T04:34:16.149Z,1.10
2022-09-15T04:36:43.877Z,1.00
2022-09-15T04:39:11.657Z,0.95
2022-09-15T04:41:39.052Z,1.00
2022-09-15T04:44:06.599Z,0.90
2022-09-15T04:46:34.439Z,1.00
2022-09-15T04:49:02.014Z,1.20
2022-09-15T04:51:29.631Z,0.90
2022-09-15T04:53:57.973Z,1.20
2022-09-15T04:56:27.163Z,0.90
2022-09-15T04:59:02.437Z,1.30
2022-09-15T05:01:34.386Z,1.20
2022-09-15T05:04:04.158Z,1.00
2022-09-15T05:06:32.365Z,0.93
2022-09-15T05:09:00.225Z,0.98
2022-09-15T05:11:28.673Z,1.13
2022-09-15T05:13:56.126Z,1.30
2022-09-15T05:16:27.645Z,1.10
2022-09-15T05:18:57.250Z,1.73
2022-09-15T05:21:25.278Z,1.70
2022-09-15T05:23:54.138Z,1.70
2022-09-15T05:26:25.528Z,1.20
2022-09-15T05:28:53.977Z,0.90
2022-09-15T05:31:31.357Z,0.85
2022-09-15T05:34:01.746Z,1.15
2022-09-15T05:36:30.092Z,1.30
2022-09-15T05:38:58.265Z,0.90
2022-09-15T05:41:27.080Z,6.28
2022-09-15T05:43:57.208Z,1.50
2022-09-15T05:46:26.537Z,2.15
2022-09-15T05:48:55.747Z,1.17
2022-09-15T05:51:23.534Z,1.00
2022-09-15T05:53:51.166Z,1.05
2022-09-15T05:56:19.006Z,1.40
2022-09-15T05:58:48.273Z,0.93
2022-09-15T06:01:19.135Z,1.15
2022-09-15T06:03:47.302Z,0.90
2022-09-15T06:06:15.309Z,3.88
2022-09-15T06:08:48.213Z,1.00
2022-09-15T06:11:18.662Z,1.17
2022-09-15T06:13:47.106Z,1.38
2022-09-15T06:16:19.463Z,1.25
2022-09-15T06:18:48.670Z,1.42
2022-09-15T06:21:20.441Z,1.00
2022-09-15T06:23:52.568Z,1.40
2022-09-15T06:26:20.435Z,1.30
2022-09-15T06:28:50.990Z,1.20
2022-09-15T06:31:19.483Z,1.33
2022-09-15T06:33:51.393Z,1.35
2022-09-15T06:36:22.954Z,1.13
2022-09-15T06:38:51.839Z,1.00
2022-09-15T06:41:20.461Z,2.00
2022-09-15T06:43:49.377Z,1.17
2022-09-15T06:46:19.692Z,1.75
2022-09-15T06:48:53.722Z,1.88
2022-09-15T06:51:25.196Z,2.20
2022-09-15T06:53:56.577Z,1.25
2022-09-15T06:56:24.509Z,1.45
2022-09-15T06:58:52.395Z,1.63
2022-09-15T07:01:23.390Z,1.58
2022-09-15T07:03:51.059Z,3.10
2022-09-15T07:06:19.109Z,1.50
2022-09-15T07:08:47.538Z,1.35
2022-09-15T07:11:15.084Z,1.60
2022-09-15T07:13:42.842Z,1.55
2022-09-15T07:16:13.076Z,1.40
2022-09-15T07:18:43.231Z,1.38
2022-09-15T07:21:14.912Z,1.45
2022-09-15T07:23:43.247Z,3.47
2022-09-15T07:26:16.426Z,1.60
2022-09-15T07:31:15.666Z,1.20
2022-09-15T07:33:43.422Z,1.35
2022-09-15T07:36:11.865Z,1.60
2022-09-15T07:38:42.258Z,1.35
2022-09-15T07:41:15.100Z,1.30
2022-09-15T07:43:51.966Z,1.50
2022-09-15T07:46:21.054Z,1.45
2022-09-15T07:48:50.145Z,1.70
2022-09-15T07:51:18.452Z,1.50
2022-09-15T07:53:48.743Z,1.48
2022-09-15T07:56:18.689Z,1.20
2022-09-15T07:58:47.322Z,1.92
2022-09-15T08:01:16.135Z,1.70
2022-09-15T08:03:49.002Z,1.50
2022-09-15T08:06:20.732Z,1.63
2022-09-15T08:08:49.262Z,2.00
2022-09-15T08:11:19.306Z,1.67
2022-09-15T08:13:48.152Z,1.55
2022-09-15T08:16:18.381Z,1.60
2022-09-15T08:18:46.308Z,2.03
2022-09-15T08:21:17.886Z,2.05
2022-09-15T08:23:45.353Z,1.50
2022-09-15T08:26:14.651Z,2.20
2022-09-15T08:28:43.031Z,2.10
2022-09-15T08:31:14.059Z,2.35
2022-09-15T08:33:45.485Z,1.95
2022-09-15T08:36:13.695Z,1.50
2022-09-15T08:38:43.090Z,2.50
2022-09-15T08:41:28.138Z,3.67
2022-09-15T08:44:05.085Z,2.30
2022-09-15T08:46:38.556Z,4.10
2022-09-15T08:49:26.824Z,2.25
2022-09-15T08:52:08.127Z,2.13
2022-09-15T08:54:35.539Z,2.15
2022-09-15T08:57:04.823Z,3.33
2022-09-15T08:59:35.961Z,2.20
2022-09-15T09:02:24.783Z,1.95
2022-09-15T09:05:07.863Z,2.30
2022-09-15T09:08:00.923Z,2.00
2022-09-15T09:10:43.975Z,2.20
2022-09-15T09:13:35.420Z,2.00
2022-09-15T09:16:30.468Z,2.00
2022-09-15T09:19:20.176Z,1.70
2022-09-15T09:22:07.737Z,1.77
2022-09-15T09:24:44.647Z,1.88
2022-09-15T09:27:15.137Z,1.98
2022-09-15T09:29:49.781Z,3.30
2022-09-15T09:32:25.420Z,2.17
2022-09-15T09:35:04.273Z,1.70
2022-09-15T09:37:33.046Z,1.75
2022-09-15T09:40:01.313Z,2.00
2022-09-15T09:42:34.996Z,3.78
2022-09-15T09:45:05.226Z,1.65
2022-09-15T09:47:35.194Z,1.35
2022-09-15T09:50:02.797Z,1.90
2022-09-15T09:52:38.098Z,1.30
2022-09-15T09:55:23.419Z,1.35
2022-09-15T09:57:51.424Z,1.55
2022-09-15T10:00:37.219Z,1.45
2022-09-15T10:03:21.916Z,1.45
2022-09-15T10:06:12.458Z,1.15
2022-09-15T10:08:55.061Z,1.30
2022-09-15T10:11:38.816Z,1.42
2022-09-15T10:14:07.090Z,1.20
2022-09-15T10:16:35.385Z,1.27
2022-09-15T10:19:02.940Z,1.20
2022-09-15T10:21:30.513Z,1.20
2022-09-15T10:23:57.981Z,1.50
2022-09-15T10:26:34.938Z,1.70
2022-09-15T10:29:18.830Z,1.50
2022-09-15T10:31:46.898Z,1.50
2022-09-15T10:34:31.259Z,1.40
2022-09-15T10:37:13.387Z,1.30
2022-09-15T10:39:54.229Z,1.48
2022-09-15T10:42:38.560Z,1.50
2022-09-15T10:45:32.341Z,1.38
2022-09-15T10:48:14.903Z,1.60
2022-09-15T10:51:16.128Z,2.10
2022-09-15T10:53:57.869Z,2.10
2022-09-15T10:56:30.860Z,2.00
2022-09-15T10:59:30.827Z,2.13
2022-09-15T11:02:24.090Z,2.30
2022-09-15T11:05:23.023Z,1.90
2022-09-15T11:08:26.058Z,2.05
2022-09-15T11:11:06.225Z,2.10
2022-09-15T11:13:58.838Z,2.30
2022-09-15T11:16:40.989Z,2.37
2022-09-15T11:19:24.560Z,2.45
2022-09-15T11:21:58.369Z,2.60
2022-09-15T11:24:39.552Z,2.30
2022-09-15T11:27:25.945Z,2.63
2022-09-15T11:30:17.691Z,2.67
2022-09-15T11:33:07.315Z,2.60
2022-09-15T11:35:55.894Z,3.00
2022-09-15T11:38:48.590Z,3.55
2022-09-15T11:41:42.603Z,3.50
2022-09-15T11:44:28.037Z,3.90
2022-09-15T11:47:16.515Z,4.20
2022-09-15T11:50:03.848Z,4.22
2022-09-15T11:53:02.208Z,4.60
2022-09-15T11:55:39.858Z,4.30
2022-09-15T11:58:29.207Z,4.35
2022-09-15T12:01:07.283Z,5.13
2022-09-15T12:04:05.718Z,5.30
2022-09-15T12:06:45.946Z,5.13
2022-09-15T12:11:52.086Z,4.65
2022-09-15T12:14:36.143Z,4.20
2022-09-15T12:17:06.397Z,4.28
2022-09-15T12:19:49.924Z,4.38
2022-09-15T12:22:36.874Z,3.92
2022-09-15T12:25:13.145Z,3.63
2022-09-15T12:27:40.661Z,4.25
2022-09-15T12:30:43.549Z,3.97
2022-09-15T12:33:42.320Z,4.37
2022-09-15T12:36:41.390Z,4.40
2022-09-15T12:39:38.341Z,3.97
2022-09-15T12:42:15.211Z,4.00
2022-09-15T12:45:01.362Z,3.95
2022-09-15T12:47:54.847Z,3.60
2022-09-15T12:50:29.593Z,3.88
2022-09-15T12:53:03.141Z,4.43
2022-09-15T12:55:35.379Z,3.75
2022-09-15T12:58:21.095Z,3.87
2022-09-15T13:01:17.241Z,3.63
2022-09-15T13:04:13.025Z,3.88
2022-09-15T13:06:40.510Z,3.33
2022-09-15T13:09:28.324Z,2.70
2022-09-15T13:11:57.085Z,3.22
2022-09-15T13:14:34.561Z,3.35
2022-09-15T13:17:20.252Z,2.75
2022-09-15T13:19:50.918Z,2.33
2022-09-15T13:22:30.328Z,2.65
2022-09-15T13:25:16.963Z,2.40
2022-09-15T13:27:49.877Z,2.40
2022-09-15T13:30:48.370Z,2.55
2022-09-15T13:40:02.724Z,2.50
2022-09-15T13:42:57.625Z,2.70
2022-09-15T13:45:48.042Z,2.55
2022-09-15T13:48:35.966Z,2.53
2022-09-15T13:51:12.867Z,2.50
2022-09-15T13:53:47.685Z,2.60
2022-09-15T13:56:32.657Z,3.50
2022-09-15T13:59:10.156Z,3.20
2022-09-15T14:01:40.554Z,2.90
2022-09-15T14:04:16.950Z,2.80
2022-09-15T14:06:47.257Z,2.88
2022-09-15T14:09:20.314Z,2.58
2022-09-15T14:11:51.750Z,2.60
2022-09-15T14:14:36.988Z,2.63
2022-09-15T14:17:04.845Z,2.95
2022-09-15T14:19:38.373Z,2.65
2022-09-15T14:22:28.142Z,3.00
2022-09-15T14:24:58.810Z,2.50
2022-09-15T14:27:29.695Z,2.95
2022-09-15T14:29:58.964Z,2.78
2022-09-15T14:32:28.508Z,3.00
2022-09-15T14:35:04.295Z,2.95
2022-09-15T14:37:33.100Z,2.65
2022-09-15T14:40:02.395Z,2.55
2022-09-15T14:42:35.701Z,3.13
2022-09-15T14:48:14.458Z,2.30
2022-09-15T14:50:43.870Z,2.95
2022-09-15T14:53:18.089Z,2.28
2022-09-15T14:56:08.209Z,2.25
2022-09-15T14:58:44.889Z,2.30
2022-09-15T15:01:20.230Z,2.00
2022-09-15T15:04:10.153Z,1.90
2022-09-15T15:06:49.479Z,1.40
2022-09-15T15:09:30.065Z,2.00
2022-09-15T15:12:02.617Z,1.27
2022-09-15T15:14:30.838Z,1.70
2022-09-15T15:17:02.551Z,1.50
2022-09-15T15:19:33.368Z,1.90
2022-09-15T15:22:20.261Z,2.05
2022-09-15T15:24:51.467Z,1.85
2022-09-15T15:27:40.336Z,2.67
2022-09-15T15:30:27.034Z,2.35
2022-09-15T15:32:57.670Z,2.60
2022-09-15T15:35:26.221Z,2.08
2022-09-15T15:38:16.774Z,1.85
2022-09-15T15:40:45.946Z,2.40
2022-09-15T15:43:23.704Z,2.15
2022-09-15T15:45:58.548Z,2.53
2022-09-15T15:48:32.831Z,2.53
2022-09-15T15:51:05.695Z,1.65
2022-09-15T15:53:34.569Z,2.17
2022-09-15T15:56:02.276Z,1.60
2022-09-15T15:58:29.865Z,2.30
2022-09-15T16:00:58.001Z,1.73
2022-09-15T16:03:26.127Z,1.80
2022-09-15T16:05:58.991Z,2.00
2022-09-15T16:08:32.984Z,2.42
2022-09-15T16:11:02.740Z,2.25
2022-09-15T16:13:31.370Z,2.22
2022-09-15T16:16:01.481Z,1.90
2022-09-15T16:18:30.082Z,1.98
2022-09-15T16:20:57.928Z,2.55
2022-09-15T16:23:25.603Z,2.50
2022-09-15T16:26:01.291Z,2.65
2022-09-15T16:28:29.816Z,2.58
2022-09-15T16:30:58.724Z,2.42
2022-09-15T16:33:26.854Z,2.42
2022-09-15T16:36:07.190Z,2.47
2022-09-15T16:38:37.299Z,2.70
2022-09-15T16:41:13.610Z,2.75
2022-09-15T16:43:42.276Z,3.00
2022-09-15T16:46:11.948Z,3.03
2022-09-15T16:48:42.274Z,2.47
2022-09-15T16:51:28.789Z,2.83
2022-09-15T16:53:59.646Z,2.90
2022-09-15T16:56:29.037Z,3.05
2022-09-15T16:59:00.561Z,3.40
2022-09-15T17:01:30.155Z,2.72
2022-09-15T17:03:59.176Z,2.70
2022-09-15T17:06:28.035Z,3.17
2022-09-15T17:08:56.910Z,3.25
2022-09-15T17:11:29.776Z,3.22
2022-09-15T17:13:58.532Z,3.38
2022-09-15T17:16:29.167Z,3.00
2022-09-15T17:18:58.744Z,3.08
2022-09-15T17:21:28.522Z,2.60
2022-09-15T17:23:57.488Z,2.63
2022-09-15T17:26:30.467Z,2.83
2022-09-15T17:29:00.324Z,3.13
2022-09-15T17:31:28.938Z,3.78
2022-09-15T17:33:57.491Z,3.63
2022-09-15T17:36:26.989Z,5.85
2022-09-15T17:38:56.050Z,4.00
2022-09-15T17:41:24.968Z,3.92
2022-09-15T17:43:53.628Z,3.67
2022-09-15T17:46:22.579Z,3.65
2022-09-15T17:48:51.504Z,4.70
2022-09-15T17:51:20.952Z,3.97
2022-09-15T17:53:49.881Z,4.13
2022-09-15T17:56:19.288Z,4.28
2022-09-15T17:58:48.745Z,4.20
2022-09-15T18:01:18.551Z,4.40
2022-09-15T18:03:48.389Z,5.25
2022-09-15T18:06:18.956Z,5.25
2022-09-15T18:08:49.365Z,5.47
2022-09-15T18:11:19.916Z,4.75
2022-09-15T18:13:50.160Z,4.30
2022-09-15T18:16:19.927Z,5.22
2022-09-15T18:18:50.365Z,4.65
2022-09-15T18:21:29.313Z,5.25
2022-09-15T18:23:59.778Z,5.05
2022-09-15T18:26:30.572Z,5.20
2022-09-15T18:29:07.970Z,5.10
2022-09-15T18:31:38.191Z,7.03
2022-09-15T18:34:08.956Z,6.00
2022-09-15T18:36:39.234Z,5.75
2022-09-15T18:39:10.805Z,8.68
2022-09-15T18:41:41.301Z,5.68
2022-09-15T18:44:10.249Z,6.28
2022-09-15T18:46:40.233Z,7.90
2022-09-15T18:49:10.641Z,5.38
2022-09-15T18:51:51.517Z,6.10
2022-09-15T18:54:21.944Z,5.93
2022-09-15T18:56:52.958Z,5.78
2022-09-15T18:59:23.636Z,5.82
2022-09-15T19:01:54.476Z,6.05
2022-09-15T19:04:27.289Z,5.32
2022-09-15T19:07:00.217Z,6.03
2022-09-15T19:09:30.212Z,14.88
2022-09-15T19:12:00.141Z,6.32
2022-09-15T19:14:31.515Z,7.53
2022-09-15T19:17:01.875Z,6.85
2022-09-15T19:19:32.185Z,6.57
2022-09-15T19:22:02.521Z,6.07
2022-09-15T19:24:35.365Z,6.93
2022-09-15T19:27:07.736Z,7.65
2022-09-15T19:29:39.886Z,6.50
2022-09-15T19:32:13.984Z,6.97
2022-09-15T19:34:44.344Z,8.07
2022-09-15T19:37:18.863Z,7.63
2022-09-15T19:39:51.907Z,8.13
2022-09-15T19:42:23.233Z,10.73
2022-09-15T19:44:55.635Z,13.23
2022-09-15T19:47:26.393Z,12.50
2022-09-15T19:49:59.123Z,12.27
2022-09-15T19:52:28.936Z,14.40
2022-09-15T19:55:00.122Z,18.05
2022-09-15T19:57:32.026Z,26.88
2022-09-15T20:00:01.345Z,14.63
2022-09-15T20:02:33.738Z,20.65
2022-09-15T20:05:02.807Z,20.88
2022-09-15T20:07:33.435Z,15.63
2022-09-15T20:10:02.665Z,16.23
2022-09-15T20:12:31.836Z,20.33
2022-09-15T20:15:00.421Z,18.30
2022-09-15T20:17:29.308Z,20.20
2022-09-15T20:19:58.209Z,18.73
2022-09-15T20:22:27.320Z,15.95
2022-09-15T20:24:56.860Z,15.52
2022-09-15T20:27:25.806Z,15.88
2022-09-15T20:29:54.002Z,16.58
2022-09-15T20:32:28.040Z,12.70
2022-09-15T20:34:56.726Z,11.63
2022-09-15T20:37:24.801Z,18.85
2022-09-15T20:39:53.177Z,12.00
2022-09-15T20:42:21.466Z,10.65
2022-09-15T20:44:49.345Z,11.75
2022-09-15T20:47:16.989Z,9.50
2022-09-15T20:49:45.376Z,10.43
2022-09-15T20:52:13.946Z,10.13
2022-09-15T20:54:42.410Z,9.95
2022-09-15T20:57:10.316Z,10.63
2022-09-15T20:59:38.027Z,9.75
2022-09-15T21:02:10.052Z,11.02
2022-09-15T21:04:37.754Z,10.40
2022-09-15T21:07:05.336Z,9.15
2022-09-15T21:09:33.258Z,9.00
2022-09-15T21:12:01.086Z,9.38
2022-09-15T21:14:28.526Z,9.63
2022-09-15T21:16:56.395Z,10.95
2022-09-15T21:19:24.302Z,8.98
2022-09-15T21:21:52.260Z,9.00
2022-09-15T21:24:21.484Z,9.00
2022-09-15T21:27:04.242Z,9.05
2022-09-15T21:29:31.792Z,9.25
2022-09-15T21:31:59.296Z,9.15
2022-09-15T21:34:29.270Z,8.32
2022-09-15T21:36:57.056Z,8.75
2022-09-15T21:39:24.999Z,8.38
2022-09-15T21:41:52.760Z,8.48
2022-09-15T21:44:20.278Z,8.35
2022-09-15T21:46:48.720Z,7.90
2022-09-15T21:49:18.227Z,8.00
2022-09-15T21:51:46.067Z,7.95
2022-09-15T21:54:14.734Z,7.78
2022-09-15T21:56:42.494Z,7.00
2022-09-15T21:59:11.121Z,6.10
2022-09-15T22:01:40.436Z,6.10
2022-09-15T22:04:09.012Z,7.18
2022-09-15T22:06:40.676Z,7.00
2022-09-15T22:09:11.348Z,6.45
2022-09-15T22:11:39.332Z,6.70
2022-09-15T22:14:08.478Z,6.57
2022-09-15T22:16:38.684Z,7.00
2022-09-15T22:19:07.568Z,6.82
2022-09-15T22:21:37.237Z,6.90
2022-09-15T22:24:07.150Z,6.93
2022-09-15T22:26:37.630Z,6.57
2022-09-15T22:29:05.943Z,7.03
2022-09-15T22:31:34.236Z,7.18
2022-09-15T22:34:01.912Z,6.97
2022-09-15T22:36:30.733Z,7.38
2022-09-15T22:39:07.077Z,7.70
2022-09-15T22:41:36.797Z,7.75
2022-09-15T22:44:05.786Z,8.15
2022-09-15T22:46:33.281Z,7.68
2022-09-15T22:49:01.232Z,8.25
2022-09-15T22:51:29.209Z,7.50
2022-09-15T22:53:57.526Z,8.45
2022-09-15T22:56:26.635Z,7.82
2022-09-15T22:58:55.547Z,8.18
2022-09-15T23:01:27.104Z,7.38
2022-09-15T23:03:58.563Z,7.80
2022-09-15T23:06:28.432Z,8.30
2022-09-15T23:08:58.368Z,8.32
2022-09-15T23:11:27.390Z,8.85
2022-09-15T23:13:56.077Z,8.55
2022-09-15T23:16:25.062Z,8.57
2022-09-15T23:18:53.800Z,8.93
2022-09-15T23:21:21.737Z,9.15
2022-09-15T23:23:49.877Z,9.05
2022-09-15T23:26:19.359Z,9.00
2022-09-15T23:28:47.167Z,9.20
2022-09-15T23:31:15.022Z,9.52
2022-09-15T23:33:43.231Z,9.82
2022-09-15T23:36:14.700Z,9.55
2022-09-15T23:38:45.184Z,8.60
2022-09-15T23:41:13.809Z,9.65
2022-09-15T23:43:41.919Z,9.60
2022-09-15T23:46:09.537Z,10.32
2022-09-15T23:48:37.498Z,9.52
2022-09-15T23:51:05.185Z,10.23
2022-09-15T23:53:32.835Z,9.63
2022-09-15T23:56:00.185Z,9.48
2022-09-15T23:58:27.704Z,9.27
